createdAt,value
2022-09-04T00:02:21.730Z,76.67
2022-09-04T00:04:52.273Z,77.26
2022-09-04T00:07:27.103Z,77.73
2022-09-04T00:10:16.145Z,77.25
2022-09-04T00:13:09.782Z,78.03
2022-09-04T00:15:44.786Z,78.05
2022-09-04T00:18:30.401Z,79.15
2022-09-04T00:21:15.751Z,79.50
2022-09-04T00:23:52.810Z,79.04
2022-09-04T00:26:36.945Z,79.12
2022-09-04T00:29:13.563Z,80.14
2022-09-04T00:31:48.282Z,81.00
2022-09-04T00:34:32.461Z,80.62
2022-09-04T00:37:06.501Z,80.38
2022-09-04T00:39:45.090Z,80.97
2022-09-04T00:42:35.867Z,80.93
2022-09-04T00:45:41.267Z,80.90
2022-09-04T00:48:25.220Z,81.47
2022-09-04T00:51:16.037Z,80.39
2022-09-04T00:53:52.563Z,79.70
2022-09-04T00:56:53.912Z,79.36
2022-09-04T00:59:56.123Z,79.22
2022-09-04T01:02:50.830Z,79.25
2022-09-04T01:05:45.894Z,79.82
2022-09-04T01:08:35.604Z,80.22
2022-09-04T01:11:27.564Z,80.37
2022-09-04T01:14:10.855Z,80.76
2022-09-04T01:16:53.570Z,80.43
2022-09-04T01:19:35.783Z,80.56
2022-09-04T01:22:21.512Z,81.33
2022-09-04T01:25:18.974Z,81.38
2022-09-04T01:28:08.501Z,81.63
2022-09-04T01:30:47.010Z,81.71
2022-09-04T01:33:37.354Z,82.09
2022-09-04T01:36:27.948Z,82.72
2022-09-04T01:38:59.036Z,83.19
2022-09-04T01:41:39.460Z,83.54
2022-09-04T01:44:09.943Z,84.05
2022-09-04T01:46:50.169Z,84.14
2022-09-04T01:49:37.428Z,85.13
2022-09-04T01:52:26.596Z,85.68
2022-09-04T01:55:00.788Z,85.83
2022-09-04T01:57:59.148Z,86.19
2022-09-04T02:00:33.921Z,86.86
2022-09-04T02:03:22.403Z,86.82
2022-09-04T02:06:09.415Z,87.68
2022-09-04T02:08:44.622Z,88.36
2022-09-04T02:11:20.605Z,89.14
2022-09-04T02:14:17.814Z,89.00
2022-09-04T02:17:04.032Z,90.71
2022-09-04T02:19:52.970Z,91.10
2022-09-04T02:22:29.259Z,91.49
2022-09-04T02:25:11.032Z,91.70
2022-09-04T02:27:59.556Z,91.87
2022-09-04T02:30:33.210Z,92.06
2022-09-04T02:33:21.222Z,92.26
2022-09-04T02:36:06.208Z,92.78
2022-09-04T02:38:52.618Z,93.15
2022-09-04T02:41:42.748Z,93.66
2022-09-04T02:44:17.051Z,94.32
2022-09-04T02:47:07.857Z,94.88
2022-09-04T02:49:55.360Z,95.56
2022-09-04T02:52:47.549Z,96.04
2022-09-04T02:55:45.422Z,96.33
2022-09-04T02:58:39.692Z,96.91
2022-09-04T03:01:31.404Z,97.45
2022-09-04T03:04:13.812Z,98.38
2022-09-04T03:06:44.477Z,98.84
2022-09-04T03:09:20.061Z,99.19
2022-09-04T03:12:14.857Z,99.58
2022-09-04T03:15:00.200Z,99.78
2022-09-04T03:17:44.411Z,100.00
2022-09-04T03:20:25.303Z,100.00
2022-09-04T03:22:59.688Z,100.00
2022-09-04T03:25:40.565Z,100.00
2022-09-04T03:28:13.644Z,100.00
2022-09-04T03:30:42.511Z,100.00
2022-09-04T03:33:27.466Z,100.00
2022-09-04T03:36:08.158Z,100.00
2022-09-04T03:38:43.738Z,100.00
2022-09-04T03:41:30.229Z,100.00
2022-09-04T03:44:00.509Z,100.00
2022-09-04T03:46:49.276Z,100.00
2022-09-04T03:49:34.274Z,100.00
2022-09-04T03:52:11.154Z,100.00
2022-09-04T03:54:55.023Z,100.00
2022-09-04T03:57:52.869Z,100.00
2022-09-04T04:00:22.605Z,100.00
2022-09-04T04:02:59.321Z,100.00
2022-09-04T04:05:37.961Z,100.00
2022-09-04T04:08:27.704Z,100.00
2022-09-04T04:11:01.174Z,100.00
2022-09-04T04:13:53.353Z,100.00
2022-09-04T04:16:40.611Z,100.00
2022-09-04T04:19:46.986Z,100.00
2022-09-04T04:22:29.746Z,100.00
2022-09-04T04:25:16.445Z,100.00
2022-09-04T04:28:09.197Z,100.00
2022-09-04T04:30:52.572Z,100.00
2022-09-04T04:33:42.404Z,100.00
2022-09-04T04:36:45.610Z,100.00
2022-09-04T04:39:32.590Z,100.00
2022-09-04T04:42:12.253Z,100.00
2022-09-04T04:45:23.338Z,100.00
2022-09-04T04:48:12.428Z,100.00
2022-09-04T04:50:47.685Z,100.00
2022-09-04T04:53:25.956Z,100.00
2022-09-04T04:56:32.914Z,100.00
2022-09-04T04:59:20.693Z,100.00
2022-09-04T05:01:56.202Z,100.00
2022-09-04T05:04:31.705Z,100.00
2022-09-04T05:07:22.215Z,100.00
2022-09-04T05:10:07.080Z,100.00
2022-09-04T05:13:03.478Z,100.00
2022-09-04T05:16:08.415Z,100.00
2022-09-04T05:18:48.682Z,100.00
2022-09-04T05:21:43.477Z,100.00
2022-09-04T05:24:38.690Z,100.00
2022-09-04T05:27:31.029Z,100.00
2022-09-04T05:30:13.007Z,100.00
2022-09-04T05:32:54.832Z,100.00
2022-09-04T05:35:36.377Z,100.00
2022-09-04T05:38:36.729Z,100.00
2022-09-04T05:41:15.458Z,100.00
2022-09-04T05:44:07.014Z,100.00
2022-09-04T05:46:52.297Z,100.00
2022-09-04T05:49:44.464Z,100.00
2022-09-04T05:52:42.410Z,100.00
2022-09-04T05:55:32.892Z,100.00
2022-09-04T05:58:34.390Z,100.00
2022-09-04T06:01:15.558Z,100.00
2022-09-04T06:03:43.782Z,100.00
2022-09-04T06:06:15.198Z,100.00
2022-09-04T06:08:56.813Z,100.00
2022-09-04T06:11:42.777Z,100.00
2022-09-04T06:14:31.484Z,100.00
2022-09-04T06:17:28.906Z,100.00
2022-09-04T06:19:59.100Z,100.00
2022-09-04T06:22:40.729Z,100.00
2022-09-04T06:25:25.560Z,100.00
2022-09-04T06:28:31.382Z,100.00
2022-09-04T06:31:20.138Z,100.00
2022-09-04T06:34:00.882Z,100.00
2022-09-04T06:36:42.656Z,100.00
2022-09-04T06:39:31.606Z,100.00
2022-09-04T06:42:17.367Z,100.00
2022-09-04T06:44:44.802Z,100.00
2022-09-04T06:47:27.399Z,100.00
2022-09-04T06:50:30.212Z,100.00
2022-09-04T06:53:04.151Z,100.00
2022-09-04T06:55:45.791Z,100.00
2022-09-04T06:58:27.993Z,100.00
2022-09-04T07:01:21.624Z,100.00
2022-09-04T07:03:56.707Z,100.00
2022-09-04T07:06:48.645Z,100.00
2022-09-04T07:09:28.150Z,100.00
2022-09-04T07:12:33.585Z,100.00
2022-09-04T07:15:40.308Z,100.00
2022-09-04T07:18:34.866Z,99.68
2022-09-04T07:21:15.389Z,97.73
2022-09-04T07:23:48.810Z,97.00
2022-09-04T07:26:33.406Z,96.53
2022-09-04T07:29:25.748Z,95.39
2022-09-04T07:32:18.812Z,94.04
2022-09-04T07:34:56.349Z,93.17
2022-09-04T07:37:58.424Z,92.04
2022-09-04T07:40:40.486Z,91.58
2022-09-04T07:43:16.020Z,91.20
2022-09-04T07:45:47.565Z,90.03
2022-09-04T07:48:33.348Z,88.43
2022-09-04T07:51:10.212Z,88.15
2022-09-04T07:54:11.518Z,84.76
2022-09-04T07:57:05.929Z,85.26
2022-09-04T07:59:59.088Z,83.94
2022-09-04T08:02:58.533Z,83.09
2022-09-04T08:05:53.066Z,81.87
2022-09-04T08:08:53.238Z,80.27
2022-09-04T08:11:49.938Z,78.59
2022-09-04T08:14:32.448Z,78.29
2022-09-04T08:17:25.252Z,76.98
2022-09-04T08:20:04.622Z,76.68
2022-09-04T08:22:34.875Z,75.56
2022-09-04T08:25:30.803Z,73.35
2022-09-04T08:28:01.177Z,74.08
2022-09-04T08:30:36.801Z,73.16
2022-09-04T08:33:44.991Z,72.13
2022-09-04T08:36:32.606Z,71.92
2022-09-04T08:39:07.160Z,71.34
2022-09-04T08:41:57.993Z,69.15
2022-09-04T08:44:36.379Z,68.05
2022-09-04T08:47:24.095Z,67.62
2022-09-04T08:50:16.970Z,67.41
2022-09-04T08:53:06.075Z,65.75
2022-09-04T08:56:10.105Z,64.88
2022-09-04T08:59:07.270Z,62.85
2022-09-04T09:02:19.423Z,61.39
2022-09-04T09:05:01.883Z,58.97
2022-09-04T09:08:00.391Z,58.29
2022-09-04T09:10:55.423Z,57.96
2022-09-04T09:13:22.859Z,56.30
2022-09-04T09:16:14.110Z,55.85
2022-09-04T09:19:09.009Z,56.49
2022-09-04T09:21:49.325Z,54.80
2022-09-04T09:24:25.905Z,53.30
2022-09-04T09:27:11.757Z,53.84
2022-09-04T09:29:51.906Z,52.29
2022-09-04T09:32:52.184Z,51.16
2022-09-04T09:35:55.693Z,50.54
2022-09-04T09:39:00.406Z,49.76
2022-09-04T09:42:00.840Z,49.18
2022-09-04T09:44:49.686Z,48.71
2022-09-04T09:47:54.644Z,48.80
2022-09-04T09:50:47.812Z,48.08
2022-09-04T09:53:28.945Z,47.32
2022-09-04T09:56:17.126Z,47.18
2022-09-04T09:59:12.442Z,49.19
2022-09-04T10:02:20.078Z,48.58
2022-09-04T10:05:26.117Z,48.27
2022-09-04T10:08:05.607Z,46.96
2022-09-04T10:11:12.026Z,45.65
2022-09-04T10:13:58.924Z,46.11
2022-09-04T10:16:58.206Z,46.39
2022-09-04T10:20:08.789Z,46.24
2022-09-04T10:22:43.104Z,45.91
2022-09-04T10:25:37.700Z,47.23
2022-09-04T10:28:47.451Z,45.89
2022-09-04T10:31:45.642Z,45.43
2022-09-04T10:34:48.406Z,44.50
2022-09-04T10:38:09.738Z,43.89
2022-09-04T10:40:51.309Z,43.27
2022-09-04T10:43:39.405Z,43.09
2022-09-04T10:46:25.222Z,41.90
2022-09-04T10:49:39.030Z,41.72
2022-09-04T10:52:33.189Z,41.20
2022-09-04T10:55:17.634Z,41.91
2022-09-04T10:57:53.512Z,40.98
2022-09-04T11:00:23.744Z,40.21
2022-09-04T11:03:22.103Z,42.66
2022-09-04T11:06:15.803Z,42.94
2022-09-04T11:09:01.723Z,44.13
2022-09-04T11:12:09.437Z,41.05
2022-09-04T11:14:57.161Z,40.09
2022-09-04T11:17:46.129Z,39.16
2022-09-04T11:20:36.414Z,38.91
2022-09-04T11:23:25.520Z,38.40
2022-09-04T11:26:08.285Z,38.10
2022-09-04T11:28:57.101Z,38.75
2022-09-04T11:31:44.733Z,38.63
2022-09-04T11:34:36.856Z,37.69
2022-09-04T11:37:43.491Z,37.02
2022-09-04T11:40:35.739Z,37.14
2022-09-04T11:43:23.606Z,37.08
2022-09-04T11:46:00.584Z,37.05
2022-09-04T11:48:53.571Z,37.70
2022-09-04T11:51:48.930Z,38.04
2022-09-04T11:54:35.068Z,38.07
2022-09-04T11:57:12.419Z,39.23
2022-09-04T11:59:59.032Z,39.75
2022-09-04T12:02:38.601Z,40.31
2022-09-04T12:05:40.410Z,40.53
2022-09-04T12:08:21.309Z,40.77
2022-09-04T12:11:11.911Z,41.90
2022-09-04T12:14:02.035Z,41.02
2022-09-04T12:16:44.273Z,40.67
2022-09-04T12:19:16.136Z,41.62
2022-09-04T12:22:36.458Z,42.18
2022-09-04T12:25:19.284Z,42.56
2022-09-04T12:27:49.722Z,42.12
2022-09-04T12:30:55.403Z,41.47
2022-09-04T12:34:03.466Z,41.22
2022-09-04T12:36:59.339Z,40.94
2022-09-04T12:39:49.256Z,38.32
2022-09-04T12:42:25.598Z,37.72
2022-09-04T12:45:09.963Z,37.78
2022-09-04T12:47:41.658Z,36.72
2022-09-04T12:50:35.562Z,36.26
2022-09-04T12:53:14.996Z,35.48
2022-09-04T12:56:00.610Z,34.84
2022-09-04T12:58:47.894Z,35.86
2022-09-04T13:01:21.376Z,35.58
2022-09-04T13:03:59.841Z,36.17
2022-09-04T13:06:48.222Z,36.37
2022-09-04T13:09:33.555Z,36.60
2022-09-04T13:12:14.086Z,37.50
2022-09-04T13:14:57.547Z,35.86
2022-09-04T13:17:43.478Z,36.77
2022-09-04T13:20:24.435Z,37.33
2022-09-04T13:23:04.503Z,37.01
2022-09-04T13:25:55.130Z,37.61
2022-09-04T13:28:50.846Z,37.28
2022-09-04T13:31:21.379Z,37.66
2022-09-04T13:34:07.655Z,38.24
2022-09-04T13:36:46.228Z,37.82
2022-09-04T13:39:36.059Z,38.43
2022-09-04T13:42:12.381Z,38.05
2022-09-04T13:45:00.226Z,38.43
2022-09-04T13:47:43.317Z,37.71
2022-09-04T13:50:22.489Z,38.90
2022-09-04T13:53:22.974Z,38.95
2022-09-04T13:55:54.560Z,39.38
2022-09-04T13:58:26.065Z,38.83
2022-09-04T14:00:59.320Z,38.80
2022-09-04T14:03:39.786Z,38.35
2022-09-04T14:06:12.922Z,38.67
2022-09-04T14:08:43.181Z,39.17
2022-09-04T14:11:32.184Z,38.85
2022-09-04T14:14:41.335Z,38.39
2022-09-04T14:17:10.437Z,36.66
2022-09-04T14:20:19.441Z,36.68
2022-09-04T14:23:11.553Z,36.90
2022-09-04T14:26:00.801Z,35.59
2022-09-04T14:28:40.441Z,36.77
2022-09-04T14:31:22.685Z,36.37
2022-09-04T14:34:27.780Z,35.68
2022-09-04T14:37:10.351Z,35.78
2022-09-04T14:39:48.951Z,37.08
2022-09-04T14:42:42.535Z,35.81
2022-09-04T14:45:30.817Z,35.94
2022-09-04T14:48:05.310Z,35.60
2022-09-04T14:50:45.522Z,36.01
2022-09-04T14:53:22.512Z,35.79
2022-09-04T14:56:13.203Z,36.25
2022-09-04T14:58:50.140Z,36.47
2022-09-04T15:01:21.088Z,36.59
2022-09-04T15:04:13.054Z,35.84
2022-09-04T15:07:10.316Z,36.32
2022-09-04T15:09:42.023Z,35.43
2022-09-04T15:12:24.767Z,35.27
2022-09-04T15:15:31.602Z,35.21
2022-09-04T15:18:15.895Z,35.27
2022-09-04T15:20:57.181Z,34.47
2022-09-04T15:23:46.819Z,34.91
2022-09-04T15:26:37.608Z,35.01
2022-09-04T15:29:27.246Z,34.51
2022-09-04T15:32:05.071Z,34.91
2022-09-04T15:34:38.146Z,35.59
2022-09-04T15:37:19.921Z,35.11
2022-09-04T15:40:13.725Z,35.74
2022-09-04T15:42:47.436Z,35.88
2022-09-04T15:45:24.148Z,35.54
2022-09-04T15:48:03.574Z,34.93
2022-09-04T15:50:36.409Z,35.20
2022-09-04T15:53:27.242Z,35.55
2022-09-04T15:56:09.288Z,36.35
2022-09-04T15:58:47.194Z,35.43
2022-09-04T16:01:20.172Z,36.12
2022-09-04T16:04:30.119Z,35.29
2022-09-04T16:07:23.856Z,35.43
2022-09-04T16:10:00.158Z,35.57
2022-09-04T16:12:33.455Z,35.80
2022-09-04T16:15:17.402Z,35.19
2022-09-04T16:17:54.516Z,35.01
2022-09-04T16:20:35.398Z,35.08
2022-09-04T16:23:08.651Z,35.09
2022-09-04T16:25:41.737Z,34.95
2022-09-04T16:28:33.118Z,34.78
2022-09-04T16:31:12.481Z,35.29
2022-09-04T16:33:51.682Z,35.43
2022-09-04T16:36:26.084Z,35.73
2022-09-04T16:39:06.421Z,36.63
2022-09-04T16:41:44.507Z,35.34
2022-09-04T16:44:31.104Z,31.55
2022-09-04T16:47:24.454Z,32.59
2022-09-04T16:50:13.190Z,31.74
2022-09-04T16:53:12.898Z,32.20
2022-09-04T16:55:48.029Z,33.32
2022-09-04T16:58:40.360Z,32.67
2022-09-04T17:01:16.308Z,33.18
2022-09-04T17:04:13.869Z,30.91
2022-09-04T17:07:05.172Z,31.45
2022-09-04T17:09:49.661Z,30.42
2022-09-04T17:12:20.110Z,31.34
2022-09-04T17:15:08.586Z,31.69
2022-09-04T17:17:41.192Z,32.14
2022-09-04T17:20:11.095Z,30.89
2022-09-04T17:28:55.228Z,33.06
2022-09-04T17:29:18.805Z,33.27
2022-09-04T17:29:34.894Z,32.16
2022-09-04T17:34:04.298Z,30.68
2022-09-04T17:40:35.641Z,32.23
2022-09-04T17:40:53.289Z,32.50
2022-09-04T17:41:37.880Z,33.16
2022-09-04T17:44:31.806Z,34.83
2022-09-04T17:47:03.763Z,34.20
2022-09-04T17:49:35.105Z,34.77
2022-09-04T17:52:09.090Z,34.55
2022-09-04T17:54:48.889Z,35.84
2022-09-04T17:57:32.307Z,36.33
2022-09-04T18:00:06.421Z,38.06
2022-09-04T18:02:55.494Z,37.19
2022-09-04T18:05:52.915Z,37.87
2022-09-04T18:08:35.674Z,38.35
2022-09-04T18:11:21.595Z,39.10
2022-09-04T18:14:11.211Z,38.52
2022-09-04T18:16:39.466Z,39.29
2022-09-04T18:19:28.205Z,39.66
2022-09-04T18:22:22.088Z,41.00
2022-09-04T18:25:16.061Z,41.73
2022-09-04T18:28:11.631Z,41.53
2022-09-04T18:37:12.942Z,40.90
2022-09-04T18:37:15.979Z,42.74
2022-09-04T18:37:45.759Z,42.42
2022-09-04T18:40:16.602Z,41.92
2022-09-04T18:50:24.435Z,42.45
2022-09-04T18:50:31.189Z,43.72
2022-09-04T18:50:43.189Z,44.27
2022-09-04T18:51:44.559Z,44.29
2022-09-04T18:54:24.791Z,45.55
2022-09-04T18:57:01.289Z,46.02
2022-09-04T18:59:43.646Z,47.81
2022-09-04T19:02:22.657Z,47.58
2022-09-04T19:04:58.021Z,47.57
2022-09-04T19:07:51.054Z,48.21
2022-09-04T19:10:35.367Z,48.73
2022-09-04T19:13:28.653Z,49.33
2022-09-04T19:16:08.412Z,49.89
2022-09-04T19:18:41.634Z,51.13
2022-09-04T19:21:14.135Z,51.34
2022-09-04T19:23:49.140Z,51.74
2022-09-04T19:26:39.605Z,52.75
2022-09-04T19:29:19.051Z,54.38
2022-09-04T19:32:00.509Z,53.14
2022-09-04T19:34:43.138Z,53.33
2022-09-04T19:38:07.874Z,53.81
2022-09-04T19:45:53.598Z,55.11
2022-09-04T19:46:11.433Z,55.13
2022-09-04T19:46:29.798Z,55.13
2022-09-04T19:50:13.003Z,56.00
2022-09-04T19:53:31.249Z,56.84
2022-09-04T19:55:23.586Z,56.90
2022-09-04T19:57:52.578Z,56.35
2022-09-04T20:00:43.174Z,57.08
2022-09-04T20:03:29.243Z,58.36
2022-09-04T20:06:21.104Z,58.53
2022-09-04T20:08:56.421Z,58.66
2022-09-04T20:11:36.532Z,58.83
2022-09-04T20:14:14.369Z,59.39
2022-09-04T20:17:04.776Z,60.25
2022-09-04T20:19:52.021Z,60.85
2022-09-04T20:22:45.366Z,60.94
2022-09-04T20:25:30.843Z,61.16
2022-09-04T20:28:12.108Z,62.26
2022-09-04T20:30:43.707Z,62.62
2022-09-04T20:33:26.289Z,63.11
2022-09-04T20:36:15.436Z,63.61
2022-09-04T20:38:54.662Z,64.21
2022-09-04T20:41:45.904Z,64.56
2022-09-04T20:44:16.096Z,65.16
2022-09-04T20:52:49.679Z,65.53
2022-09-04T20:52:50.732Z,65.85
2022-09-04T20:53:09.552Z,66.42
2022-09-04T20:55:46.632Z,66.19
2022-09-04T21:03:05.179Z,65.97
2022-09-04T21:03:20.360Z,66.40
2022-09-04T21:04:56.765Z,66.35
2022-09-04T21:07:40.733Z,66.83
2022-09-04T21:10:20.203Z,67.20
2022-09-04T21:13:14.400Z,67.59
2022-09-04T21:15:48.198Z,68.22
2022-09-04T21:18:44.995Z,68.56
2022-09-04T21:21:50.833Z,68.78
2022-09-04T21:24:30.317Z,69.21
2022-09-04T21:27:29.067Z,69.84
2022-09-04T21:30:15.971Z,70.54
2022-09-04T21:33:28.098Z,70.73
2022-09-04T21:36:25.383Z,70.91
2022-09-04T21:39:11.394Z,72.01
2022-09-04T21:41:44.743Z,72.86
2022-09-04T21:44:41.836Z,73.19
2022-09-04T21:47:31.139Z,73.34
2022-09-04T21:50:23.018Z,74.25
2022-09-04T21:52:59.478Z,74.13
2022-09-04T22:00:44.540Z,73.32
2022-09-04T22:02:41.533Z,73.59
2022-09-04T22:02:54.362Z,73.27
2022-09-04T22:05:34.077Z,72.95
2022-09-04T22:13:31.370Z,73.71
2022-09-04T22:13:38.065Z,73.98
2022-09-04T22:14:43.753Z,74.48
2022-09-04T22:17:28.001Z,73.92
2022-09-04T22:20:28.006Z,73.95
2022-09-04T22:23:24.851Z,74.06
2022-09-04T22:26:23.943Z,75.90
2022-09-04T22:28:55.619Z,76.20
2022-09-04T22:31:24.264Z,76.38
2022-09-04T22:34:15.476Z,76.13
2022-09-04T22:37:17.392Z,75.95
2022-09-04T22:40:04.019Z,75.58
2022-09-04T22:42:43.486Z,75.37
2022-09-04T22:45:38.715Z,75.51
2022-09-04T22:48:12.195Z,75.80
2022-09-04T22:51:05.325Z,76.45
2022-09-04T22:53:44.810Z,76.28
2022-09-04T22:56:25.057Z,76.19
2022-09-04T22:59:26.723Z,76.11
2022-09-04T23:02:00.054Z,76.03
2022-09-04T23:05:17.030Z,76.37
2022-09-04T23:13:44.593Z,76.85
2022-09-04T23:14:01.028Z,77.35
2022-09-04T23:14:05.536Z,77.33
2022-09-04T23:17:01.512Z,77.36
2022-09-04T23:23:12.537Z,77.71
2022-09-04T23:26:50.901Z,77.62
2022-09-04T23:26:57.284Z,77.75
2022-09-04T23:29:41.313Z,77.88
2022-09-04T23:32:26.455Z,77.94
2022-09-04T23:35:21.573Z,78.28
2022-09-04T23:38:11.975Z,77.64
2022-09-04T23:40:43.481Z,78.30
2022-09-04T23:43:32.219Z,78.54
2022-09-04T23:46:18.189Z,78.88
2022-09-04T23:49:15.650Z,79.33
2022-09-04T23:52:04.169Z,79.61
2022-09-04T23:54:50.460Z,79.99
2022-09-04T23:57:36.592Z,80.21
